sensor_id;sensor_type;location;lat;lon;timestamp;pressure;altitude;pressure_sealevel;temperature;humidity
21359;BME280;13506;50.852;20.632;2023-08-24T00:01:35;98504.34;;;17.96;72.76
21359;BME280;13506;50.852;20.632;2023-08-24T00:04:04;98492.75;;;17.97;72.50
21359;BME280;13506;50.852;20.632;2023-08-24T00:06:32;98497.72;;;18.00;70.85
21359;BME280;13506;50.852;20.632;2023-08-24T00:09:00;98501.16;;;17.93;71.24
21359;BME280;13506;50.852;20.632;2023-08-24T00:11:32;98496.28;;;17.88;71.36
21359;BME280;13506;50.852;20.632;2023-08-24T00:13:59;98503.34;;;17.61;72.40
21359;BME280;13506;50.852;20.632;2023-08-24T00:16:29;98494.66;;;17.69;72.11
21359;BME280;13506;50.852;20.632;2023-08-24T00:18:57;98496.03;;;17.55;72.80
21359;BME280;13506;50.852;20.632;2023-08-24T00:21:25;98505.31;;;17.59;72.67
21359;BME280;13506;50.852;20.632;2023-08-24T00:23:53;98500.03;;;17.59;72.78
21359;BME280;13506;50.852;20.632;2023-08-24T00:26:22;98487.78;;;17.58;72.54
21359;BME280;13506;50.852;20.632;2023-08-24T00:28:51;98493.44;;;17.63;72.15
21359;BME280;13506;50.852;20.632;2023-08-24T00:31:21;98496.09;;;17.63;71.92
21359;BME280;13506;50.852;20.632;2023-08-24T00:33:49;98494.94;;;17.66;72.38
21359;BME280;13506;50.852;20.632;2023-08-24T00:36:17;98493.53;;;17.72;72.30
21359;BME280;13506;50.852;20.632;2023-08-24T00:38:47;98487.41;;;17.71;73.19
21359;BME280;13506;50.852;20.632;2023-08-24T00:41:17;98493.94;;;17.85;71.94
21359;BME280;13506;50.852;20.632;2023-08-24T00:43:45;98490.31;;;17.86;71.52
21359;BME280;13506;50.852;20.632;2023-08-24T00:46:15;98491.69;;;17.90;72.47
21359;BME280;13506;50.852;20.632;2023-08-24T00:48:44;98486.09;;;17.93;71.59
21359;BME280;13506;50.852;20.632;2023-08-24T00:51:12;98481.34;;;17.97;70.83
21359;BME280;13506;50.852;20.632;2023-08-24T00:53:40;98488.34;;;17.88;70.86
21359;BME280;13506;50.852;20.632;2023-08-24T00:56:08;98491.00;;;17.88;69.96
21359;BME280;13506;50.852;20.632;2023-08-24T00:58:36;98492.38;;;17.92;69.77
21359;BME280;13506;50.852;20.632;2023-08-24T01:01:06;98495.63;;;17.86;69.75
21359;BME280;13506;50.852;20.632;2023-08-24T01:03:35;98491.69;;;17.90;70.18
21359;BME280;13506;50.852;20.632;2023-08-24T01:06:03;98489.75;;;17.92;70.63
21359;BME280;13506;50.852;20.632;2023-08-24T01:08:31;98490.00;;;17.89;70.25
21359;BME280;13506;50.852;20.632;2023-08-24T01:11:08;98489.56;;;17.94;69.76
21359;BME280;13506;50.852;20.632;2023-08-24T01:13:45;98490.00;;;17.89;70.07
21359;BME280;13506;50.852;20.632;2023-08-24T01:16:21;98492.97;;;17.86;70.66
21359;BME280;13506;50.852;20.632;2023-08-24T01:18:56;98483.34;;;17.85;70.77
21359;BME280;13506;50.852;20.632;2023-08-24T01:21:26;98485.72;;;17.88;70.49
21359;BME280;13506;50.852;20.632;2023-08-24T01:24:04;98481.09;;;17.90;70.65
21359;BME280;13506;50.852;20.632;2023-08-24T01:26:40;98487.69;;;17.86;71.03
21359;BME280;13506;50.852;20.632;2023-08-24T01:29:09;98493.66;;;17.88;70.56
21359;BME280;13506;50.852;20.632;2023-08-24T01:31:37;98488.34;;;17.88;71.20
21359;BME280;13506;50.852;20.632;2023-08-24T01:34:05;98487.09;;;17.92;70.39
21359;BME280;13506;50.852;20.632;2023-08-24T01:36:33;98488.03;;;17.91;70.19
21359;BME280;13506;50.852;20.632;2023-08-24T01:39:11;98485.38;;;17.91;71.25
21359;BME280;13506;50.852;20.632;2023-08-24T01:41:43;98488.44;;;17.96;71.11
21359;BME280;13506;50.852;20.632;2023-08-24T01:44:15;98488.03;;;17.91;70.58
21359;BME280;13506;50.852;20.632;2023-08-24T01:46:46;98492.28;;;17.84;70.84
21359;BME280;13506;50.852;20.632;2023-08-24T01:49:17;98489.25;;;17.79;71.17
21359;BME280;13506;50.852;20.632;2023-08-24T01:51:46;98481.25;;;17.71;71.51
21359;BME280;13506;50.852;20.632;2023-08-24T01:54:14;98484.22;;;17.68;71.62
21359;BME280;13506;50.852;20.632;2023-08-24T01:56:44;98482.94;;;17.72;70.99
21359;BME280;13506;50.852;20.632;2023-08-24T01:59:12;98482.50;;;17.58;72.13
21359;BME280;13506;50.852;20.632;2023-08-24T02:01:41;98481.75;;;17.48;72.69
21359;BME280;13506;50.852;20.632;2023-08-24T02:04:10;98477.44;;;17.47;72.47
21359;BME280;13506;50.852;20.632;2023-08-24T02:06:38;98484.91;;;17.52;71.70
21359;BME280;13506;50.852;20.632;2023-08-24T02:09:06;98487.66;;;17.42;71.86
21359;BME280;13506;50.852;20.632;2023-08-24T02:11:34;98478.22;;;17.39;72.65
21359;BME280;13506;50.852;20.632;2023-08-24T02:14:03;98480.16;;;17.37;72.70
21359;BME280;13506;50.852;20.632;2023-08-24T02:16:37;98484.31;;;17.40;72.59
21359;BME280;13506;50.852;20.632;2023-08-24T02:19:06;98474.41;;;17.42;72.26
21359;BME280;13506;50.852;20.632;2023-08-24T02:21:36;98471.78;;;17.42;72.49
21359;BME280;13506;50.852;20.632;2023-08-24T02:24:04;98468.44;;;17.40;72.73
21359;BME280;13506;50.852;20.632;2023-08-24T02:26:32;98473.06;;;17.38;72.66
21359;BME280;13506;50.852;20.632;2023-08-24T02:29:00;98466.72;;;17.31;73.29
21359;BME280;13506;50.852;20.632;2023-08-24T02:31:30;98466.72;;;17.31;72.85
21359;BME280;13506;50.852;20.632;2023-08-24T02:33:58;98460.81;;;17.19;72.61
21359;BME280;13506;50.852;20.632;2023-08-24T02:36:26;98462.63;;;17.18;72.06
21359;BME280;13506;50.852;20.632;2023-08-24T02:38:55;98474.19;;;17.17;72.32
21359;BME280;13506;50.852;20.632;2023-08-24T02:41:23;98467.84;;;17.10;72.21
21359;BME280;13506;50.852;20.632;2023-08-24T02:43:50;98465.44;;;17.07;72.25
21359;BME280;13506;50.852;20.632;2023-08-24T02:46:21;98472.69;;;17.05;72.45
21359;BME280;13506;50.852;20.632;2023-08-24T02:48:50;98466.03;;;17.01;72.40
21359;BME280;13506;50.852;20.632;2023-08-24T02:51:22;98465.97;;;16.93;73.35
21359;BME280;13506;50.852;20.632;2023-08-24T02:53:50;98467.94;;;16.91;72.87
21359;BME280;13506;50.852;20.632;2023-08-24T02:56:21;98461.56;;;16.83;73.55
21359;BME280;13506;50.852;20.632;2023-08-24T02:58:49;98467.16;;;16.80;73.68
21359;BME280;13506;50.852;20.632;2023-08-24T03:01:17;98465.78;;;16.76;74.54
21359;BME280;13506;50.852;20.632;2023-08-24T03:03:44;98453.03;;;16.72;74.03
21359;BME280;13506;50.852;20.632;2023-08-24T03:06:14;98451.50;;;16.69;73.62
21359;BME280;13506;50.852;20.632;2023-08-24T03:08:42;98463.38;;;16.65;73.54
21359;BME280;13506;50.852;20.632;2023-08-24T03:11:12;98457.81;;;16.58;73.63
21359;BME280;13506;50.852;20.632;2023-08-24T03:13:40;98473.28;;;16.53;74.32
21359;BME280;13506;50.852;20.632;2023-08-24T03:16:09;98472.16;;;16.56;74.05
21359;BME280;13506;50.852;20.632;2023-08-24T03:18:38;98471.59;;;16.52;74.29
21359;BME280;13506;50.852;20.632;2023-08-24T03:21:07;98470.50;;;16.55;74.03
21359;BME280;13506;50.852;20.632;2023-08-24T03:23:36;98470.94;;;16.50;74.66
21359;BME280;13506;50.852;20.632;2023-08-24T03:26:04;98472.44;;;16.53;74.20
21359;BME280;13506;50.852;20.632;2023-08-24T03:28:33;98458.84;;;16.48;74.01
21359;BME280;13506;50.852;20.632;2023-08-24T03:31:01;98472.34;;;16.45;74.57
21359;BME280;13506;50.852;20.632;2023-08-24T03:33:29;98473.03;;;16.47;74.64
21359;BME280;13506;50.852;20.632;2023-08-24T03:35:57;98467.63;;;16.48;74.61
21359;BME280;13506;50.852;20.632;2023-08-24T03:38:25;98469.56;;;16.46;74.67
21359;BME280;13506;50.852;20.632;2023-08-24T03:41:02;98471.53;;;16.44;74.68
21359;BME280;13506;50.852;20.632;2023-08-24T03:43:32;98469.28;;;16.39;75.23
21359;BME280;13506;50.852;20.632;2023-08-24T03:46:00;98481.28;;;16.34;76.19
21359;BME280;13506;50.852;20.632;2023-08-24T03:48:28;98468.22;;;16.32;76.47
21359;BME280;13506;50.852;20.632;2023-08-24T03:50:58;98471.16;;;16.29;75.63
21359;BME280;13506;50.852;20.632;2023-08-24T03:53:26;98484.63;;;16.26;75.95
21359;BME280;13506;50.852;20.632;2023-08-24T03:55:54;98481.16;;;16.26;75.66
21359;BME280;13506;50.852;20.632;2023-08-24T03:58:24;98478.41;;;16.27;75.08
21359;BME280;13506;50.852;20.632;2023-08-24T04:00:53;98477.84;;;16.23;75.79
21359;BME280;13506;50.852;20.632;2023-08-24T04:03:22;98469.47;;;16.28;75.13
21359;BME280;13506;50.852;20.632;2023-08-24T04:05:50;98481.81;;;16.37;74.92
21359;BME280;13506;50.852;20.632;2023-08-24T04:08:17;98473.75;;;16.39;74.89
21359;BME280;13506;50.852;20.632;2023-08-24T04:10:46;98481.72;;;16.29;75.74
21359;BME280;13506;50.852;20.632;2023-08-24T04:13:13;98476.97;;;16.33;75.17
21359;BME280;13506;50.852;20.632;2023-08-24T04:15:44;98482.09;;;16.34;75.95
21359;BME280;13506;50.852;20.632;2023-08-24T04:18:12;98480.47;;;16.23;76.08
21359;BME280;13506;50.852;20.632;2023-08-24T04:20:40;98485.06;;;16.31;75.83
21359;BME280;13506;50.852;20.632;2023-08-24T04:23:08;98469.03;;;16.33;76.30
21359;BME280;13506;50.852;20.632;2023-08-24T04:25:40;98474.19;;;16.34;76.37
21359;BME280;13506;50.852;20.632;2023-08-24T04:28:07;98478.06;;;16.40;76.15
21359;BME280;13506;50.852;20.632;2023-08-24T04:30:35;98477.31;;;16.48;76.30
21359;BME280;13506;50.852;20.632;2023-08-24T04:33:06;98477.28;;;16.57;75.48
21359;BME280;13506;50.852;20.632;2023-08-24T04:35:35;98482.44;;;16.59;76.47
21359;BME280;13506;50.852;20.632;2023-08-24T04:38:03;98473.94;;;16.65;76.92
21359;BME280;13506;50.852;20.632;2023-08-24T04:40:48;98480.13;;;16.74;76.01
21359;BME280;13506;50.852;20.632;2023-08-24T04:43:16;98476.50;;;16.75;76.70
21359;BME280;13506;50.852;20.632;2023-08-24T04:45:45;98479.09;;;16.84;76.72
21359;BME280;13506;50.852;20.632;2023-08-24T04:48:14;98479.34;;;16.91;75.91
21359;BME280;13506;50.852;20.632;2023-08-24T04:50:44;98480.56;;;16.97;76.20
21359;BME280;13506;50.852;20.632;2023-08-24T04:53:13;98474.09;;;16.81;76.23
21359;BME280;13506;50.852;20.632;2023-08-24T04:55:42;98484.16;;;16.78;76.81
21359;BME280;13506;50.852;20.632;2023-08-24T04:58:10;98485.31;;;16.93;76.33
21359;BME280;13506;50.852;20.632;2023-08-24T05:00:40;98485.34;;;16.83;77.14
21359;BME280;13506;50.852;20.632;2023-08-24T05:03:08;98482.72;;;16.83;77.05
21359;BME280;13506;50.852;20.632;2023-08-24T05:05:38;98492.78;;;16.98;77.21
21359;BME280;13506;50.852;20.632;2023-08-24T05:08:06;98491.66;;;17.00;77.02
21359;BME280;13506;50.852;20.632;2023-08-24T05:10:37;98486.72;;;17.15;76.69
21359;BME280;13506;50.852;20.632;2023-08-24T05:13:05;98488.72;;;17.31;76.22
21359;BME280;13506;50.852;20.632;2023-08-24T05:15:33;98498.38;;;17.40;76.35
21359;BME280;13506;50.852;20.632;2023-08-24T05:18:01;98492.19;;;17.50;75.62
21359;BME280;13506;50.852;20.632;2023-08-24T05:20:30;98485.50;;;17.63;75.03
21359;BME280;13506;50.852;20.632;2023-08-24T05:22:59;98487.75;;;17.76;74.73
21359;BME280;13506;50.852;20.632;2023-08-24T05:25:27;98493.66;;;17.88;73.88
21359;BME280;13506;50.852;20.632;2023-08-24T05:27:55;98486.69;;;17.87;72.93
21359;BME280;13506;50.852;20.632;2023-08-24T05:30:23;98488.94;;;18.00;73.36
21359;BME280;13506;50.852;20.632;2023-08-24T05:32:51;98489.84;;;18.09;72.41
21359;BME280;13506;50.852;20.632;2023-08-24T05:35:19;98482.38;;;18.30;71.89
21359;BME280;13506;50.852;20.632;2023-08-24T05:37:49;98489.63;;;18.28;71.48
21359;BME280;13506;50.852;20.632;2023-08-24T05:40:18;98486.28;;;18.52;70.93
21359;BME280;13506;50.852;20.632;2023-08-24T05:42:46;98487.28;;;18.59;70.13
21359;BME280;13506;50.852;20.632;2023-08-24T05:45:14;98488.56;;;18.73;70.52
21359;BME280;13506;50.852;20.632;2023-08-24T05:47:42;98479.34;;;18.94;70.21
21359;BME280;13506;50.852;20.632;2023-08-24T05:50:10;98487.03;;;19.21;70.41
21359;BME280;13506;50.852;20.632;2023-08-24T05:52:38;98484.22;;;19.39;68.30
21359;BME280;13506;50.852;20.632;2023-08-24T05:55:07;98487.25;;;19.53;66.58
21359;BME280;13506;50.852;20.632;2023-08-24T05:57:36;98484.75;;;19.67;65.62
21359;BME280;13506;50.852;20.632;2023-08-24T06:00:05;98483.44;;;19.63;63.68
21359;BME280;13506;50.852;20.632;2023-08-24T06:02:40;98483.06;;;19.99;64.16
21359;BME280;13506;50.852;20.632;2023-08-24T06:05:08;98484.22;;;20.21;63.35
21359;BME280;13506;50.852;20.632;2023-08-24T06:07:37;98489.31;;;20.47;64.15
21359;BME280;13506;50.852;20.632;2023-08-24T06:10:06;98487.59;;;20.63;63.14
21359;BME280;13506;50.852;20.632;2023-08-24T06:12:36;98493.97;;;20.93;63.59
21359;BME280;13506;50.852;20.632;2023-08-24T06:15:05;98486.81;;;21.25;62.91
21359;BME280;13506;50.852;20.632;2023-08-24T06:17:36;98491.91;;;21.58;62.19
21359;BME280;13506;50.852;20.632;2023-08-24T06:20:04;98490.00;;;21.89;61.37
21359;BME280;13506;50.852;20.632;2023-08-24T06:22:32;98485.00;;;22.24;61.95
21359;BME280;13506;50.852;20.632;2023-08-24T06:25:00;98485.94;;;22.61;60.96
21359;BME280;13506;50.852;20.632;2023-08-24T06:27:28;98483.69;;;22.95;58.34
21359;BME280;13506;50.852;20.632;2023-08-24T06:29:58;98483.22;;;23.27;57.87
21359;BME280;13506;50.852;20.632;2023-08-24T06:32:27;98480.06;;;23.60;57.08
21359;BME280;13506;50.852;20.632;2023-08-24T06:34:55;98481.56;;;23.91;56.19
21359;BME280;13506;50.852;20.632;2023-08-24T06:37:23;98478.91;;;24.19;56.20
21359;BME280;13506;50.852;20.632;2023-08-24T06:39:51;98481.75;;;24.46;54.15
21359;BME280;13506;50.852;20.632;2023-08-24T06:42:19;98481.28;;;24.77;54.32
21359;BME280;13506;50.852;20.632;2023-08-24T06:44:47;98481.84;;;25.07;52.53
21359;BME280;13506;50.852;20.632;2023-08-24T06:47:18;98482.09;;;25.39;52.51
21359;BME280;13506;50.852;20.632;2023-08-24T06:49:46;98490.84;;;25.68;50.91
21359;BME280;13506;50.852;20.632;2023-08-24T06:52:14;98487.75;;;25.91;50.49
21359;BME280;13506;50.852;20.632;2023-08-24T06:54:42;98494.13;;;26.17;49.99
21359;BME280;13506;50.852;20.632;2023-08-24T06:57:10;98492.44;;;26.42;49.18
21359;BME280;13506;50.852;20.632;2023-08-24T06:59:38;98492.78;;;26.66;48.90
21359;BME280;13506;50.852;20.632;2023-08-24T07:02:06;98496.84;;;26.88;47.50
21359;BME280;13506;50.852;20.632;2023-08-24T07:04:36;98494.34;;;27.00;46.92
21359;BME280;13506;50.852;20.632;2023-08-24T07:07:06;98498.81;;;27.13;45.12
21359;BME280;13506;50.852;20.632;2023-08-24T07:09:35;98493.97;;;27.28;45.87
21359;BME280;13506;50.852;20.632;2023-08-24T07:12:03;98492.00;;;27.49;44.72
21359;BME280;13506;50.852;20.632;2023-08-24T07:14:33;98500.47;;;27.78;45.80
21359;BME280;13506;50.852;20.632;2023-08-24T07:17:01;98494.38;;;27.96;44.87
21359;BME280;13506;50.852;20.632;2023-08-24T07:19:29;98505.91;;;28.21;43.28
21359;BME280;13506;50.852;20.632;2023-08-24T07:21:58;98504.44;;;28.25;42.62
21359;BME280;13506;50.852;20.632;2023-08-24T07:24:27;98509.00;;;28.43;42.74
21359;BME280;13506;50.852;20.632;2023-08-24T07:26:56;98512.34;;;28.64;43.25
21359;BME280;13506;50.852;20.632;2023-08-24T07:29:25;98508.28;;;28.73;41.60
21359;BME280;13506;50.852;20.632;2023-08-24T07:31:53;98507.97;;;28.81;41.13
21359;BME280;13506;50.852;20.632;2023-08-24T07:34:21;98504.06;;;28.95;40.65
21359;BME280;13506;50.852;20.632;2023-08-24T07:36:51;98516.00;;;29.06;39.22
21359;BME280;13506;50.852;20.632;2023-08-24T07:39:21;98502.78;;;29.17;38.60
21359;BME280;13506;50.852;20.632;2023-08-24T07:41:48;98519.06;;;29.10;37.99
21359;BME280;13506;50.852;20.632;2023-08-24T07:44:17;98512.38;;;29.12;38.59
21359;BME280;13506;50.852;20.632;2023-08-24T07:46:45;98512.66;;;29.23;38.54
21359;BME280;13506;50.852;20.632;2023-08-24T07:49:13;98516.19;;;29.35;38.16
21359;BME280;13506;50.852;20.632;2023-08-24T07:51:41;98515.75;;;29.38;38.37
21359;BME280;13506;50.852;20.632;2023-08-24T07:54:09;98513.66;;;29.52;38.42
21359;BME280;13506;50.852;20.632;2023-08-24T07:56:40;98518.84;;;29.53;38.20
21359;BME280;13506;50.852;20.632;2023-08-24T07:59:08;98510.81;;;29.65;37.16
21359;BME280;13506;50.852;20.632;2023-08-24T08:01:36;98511.09;;;29.75;37.67
21359;BME280;13506;50.852;20.632;2023-08-24T08:04:04;98514.97;;;29.80;36.49
21359;BME280;13506;50.852;20.632;2023-08-24T08:06:32;98516.03;;;30.02;36.86
21359;BME280;13506;50.852;20.632;2023-08-24T08:09:00;98523.56;;;30.24;34.54
21359;BME280;13506;50.852;20.632;2023-08-24T08:11:29;98520.28;;;30.45;35.24
21359;BME280;13506;50.852;20.632;2023-08-24T08:13:58;98513.44;;;30.66;35.74
21359;BME280;13506;50.852;20.632;2023-08-24T08:16:26;98502.81;;;30.88;34.38
21359;BME280;13506;50.852;20.632;2023-08-24T08:18:54;98510.97;;;31.17;35.82
21359;BME280;13506;50.852;20.632;2023-08-24T08:21:22;98506.09;;;31.31;33.88
21359;BME280;13506;50.852;20.632;2023-08-24T08:23:51;98505.66;;;31.22;33.60
21359;BME280;13506;50.852;20.632;2023-08-24T08:26:19;98503.81;;;31.11;34.64
21359;BME280;13506;50.852;20.632;2023-08-24T08:28:47;98506.63;;;31.16;35.14
21359;BME280;13506;50.852;20.632;2023-08-24T08:31:16;98502.38;;;31.08;34.43
21359;BME280;13506;50.852;20.632;2023-08-24T08:33:45;98503.97;;;31.33;35.46
21359;BME280;13506;50.852;20.632;2023-08-24T08:36:12;98502.69;;;31.52;36.09
21359;BME280;13506;50.852;20.632;2023-08-24T08:38:40;98508.59;;;31.49;35.38
21359;BME280;13506;50.852;20.632;2023-08-24T08:41:08;98509.06;;;31.63;34.46
21359;BME280;13506;50.852;20.632;2023-08-24T08:43:38;98503.28;;;31.71;33.29
21359;BME280;13506;50.852;20.632;2023-08-24T08:46:07;98506.00;;;31.71;34.56
21359;BME280;13506;50.852;20.632;2023-08-24T08:48:37;98501.81;;;31.97;34.10
21359;BME280;13506;50.852;20.632;2023-08-24T08:51:05;98504.03;;;32.17;32.49
21359;BME280;13506;50.852;20.632;2023-08-24T08:53:34;98501.81;;;32.14;32.09
21359;BME280;13506;50.852;20.632;2023-08-24T08:56:02;98506.25;;;32.21;32.07
21359;BME280;13506;50.852;20.632;2023-08-24T08:58:32;98505.34;;;32.32;32.74
21359;BME280;13506;50.852;20.632;2023-08-24T09:01:03;98500.94;;;32.48;32.74
21359;BME280;13506;50.852;20.632;2023-08-24T09:03:32;98494.19;;;32.50;31.64
21359;BME280;13506;50.852;20.632;2023-08-24T09:06:04;98493.94;;;32.52;31.64
21359;BME280;13506;50.852;20.632;2023-08-24T09:08:32;98492.31;;;32.51;30.83
21359;BME280;13506;50.852;20.632;2023-08-24T09:11:01;98500.44;;;32.51;30.25
21359;BME280;13506;50.852;20.632;2023-08-24T09:13:30;98496.41;;;32.53;30.13
21359;BME280;13506;50.852;20.632;2023-08-24T09:16:04;98503.78;;;32.58;30.29
21359;BME280;13506;50.852;20.632;2023-08-24T09:18:37;98493.19;;;32.56;30.99
21359;BME280;13506;50.852;20.632;2023-08-24T09:21:11;98506.69;;;32.51;32.61
21359;BME280;13506;50.852;20.632;2023-08-24T09:23:43;98499.44;;;32.57;32.83
21359;BME280;13506;50.852;20.632;2023-08-24T09:26:11;98502.06;;;32.30;31.33
21359;BME280;13506;50.852;20.632;2023-08-24T09:28:42;98484.56;;;32.60;31.93
21359;BME280;13506;50.852;20.632;2023-08-24T09:31:12;98482.25;;;32.68;31.64
21359;BME280;13506;50.852;20.632;2023-08-24T09:33:43;98471.97;;;32.92;31.37
21359;BME280;13506;50.852;20.632;2023-08-24T09:36:14;98468.56;;;32.80;31.49
21359;BME280;13506;50.852;20.632;2023-08-24T09:38:47;98481.06;;;32.81;31.36
21359;BME280;13506;50.852;20.632;2023-08-24T09:41:16;98482.81;;;32.92;30.90
21359;BME280;13506;50.852;20.632;2023-08-24T09:43:44;98473.84;;;32.92;31.50
21359;BME280;13506;50.852;20.632;2023-08-24T09:46:12;98470.53;;;32.85;31.50
21359;BME280;13506;50.852;20.632;2023-08-24T09:48:53;98473.03;;;32.91;31.48
21359;BME280;13506;50.852;20.632;2023-08-24T09:51:27;98476.44;;;33.04;31.58
21359;BME280;13506;50.852;20.632;2023-08-24T09:53:58;98477.25;;;32.82;30.32
21359;BME280;13506;50.852;20.632;2023-08-24T09:56:28;98469.91;;;32.77;30.30
21359;BME280;13506;50.852;20.632;2023-08-24T09:58:58;98471.28;;;32.58;30.30
21359;BME280;13506;50.852;20.632;2023-08-24T10:01:28;98471.47;;;32.73;31.27
21359;BME280;13506;50.852;20.632;2023-08-24T10:03:58;98474.06;;;32.85;31.28
21359;BME280;13506;50.852;20.632;2023-08-24T10:06:28;98471.72;;;32.94;31.36
21359;BME280;13506;50.852;20.632;2023-08-24T10:09:01;98482.44;;;33.06;30.86
21359;BME280;13506;50.852;20.632;2023-08-24T10:11:31;98479.75;;;33.11;31.33
21359;BME280;13506;50.852;20.632;2023-08-24T10:14:07;98478.19;;;32.66;30.54
21359;BME280;13506;50.852;20.632;2023-08-24T10:16:38;98473.81;;;32.87;30.29
21359;BME280;13506;50.852;20.632;2023-08-24T10:19:07;98474.84;;;33.08;30.58
21359;BME280;13506;50.852;20.632;2023-08-24T10:21:38;98477.63;;;33.13;30.02
21359;BME280;13506;50.852;20.632;2023-08-24T10:24:07;98471.75;;;33.21;29.54
21359;BME280;13506;50.852;20.632;2023-08-24T10:26:36;98471.19;;;33.19;29.78
21359;BME280;13506;50.852;20.632;2023-08-24T10:29:07;98474.22;;;33.23;29.75
21359;BME280;13506;50.852;20.632;2023-08-24T10:31:35;98468.50;;;33.51;30.11
21359;BME280;13506;50.852;20.632;2023-08-24T10:34:06;98471.41;;;33.40;30.13
21359;BME280;13506;50.852;20.632;2023-08-24T10:36:37;98471.09;;;33.36;29.62
21359;BME280;13506;50.852;20.632;2023-08-24T10:39:06;98455.13;;;33.40;29.32
21359;BME280;13506;50.852;20.632;2023-08-24T10:41:50;98460.88;;;33.48;30.09
21359;BME280;13506;50.852;20.632;2023-08-24T10:44:24;98460.66;;;33.55;29.91
21359;BME280;13506;50.852;20.632;2023-08-24T10:47:10;98466.97;;;33.61;28.72
21359;BME280;13506;50.852;20.632;2023-08-24T10:49:40;98465.13;;;33.66;29.32
21359;BME280;13506;50.852;20.632;2023-08-24T10:52:19;98465.66;;;33.63;30.07
21359;BME280;13506;50.852;20.632;2023-08-24T10:54:49;98459.13;;;33.64;29.21
21359;BME280;13506;50.852;20.632;2023-08-24T10:57:22;98461.53;;;33.61;29.58
21359;BME280;13506;50.852;20.632;2023-08-24T11:00:03;98449.44;;;33.73;29.31
21359;BME280;13506;50.852;20.632;2023-08-24T11:02:42;98453.16;;;32.81;30.39
21359;BME280;13506;50.852;20.632;2023-08-24T11:05:19;98450.16;;;32.82;31.55
21359;BME280;13506;50.852;20.632;2023-08-24T11:07:54;98439.44;;;32.92;29.65
21359;BME280;13506;50.852;20.632;2023-08-24T11:10:23;98434.28;;;32.91;30.61
21359;BME280;13506;50.852;20.632;2023-08-24T11:13:12;98441.75;;;33.06;30.10
21359;BME280;13506;50.852;20.632;2023-08-24T11:15:42;98437.06;;;33.01;29.63
21359;BME280;13506;50.852;20.632;2023-08-24T11:18:21;98448.28;;;33.10;29.38
21359;BME280;13506;50.852;20.632;2023-08-24T11:20:51;98436.25;;;33.01;29.47
21359;BME280;13506;50.852;20.632;2023-08-24T11:23:23;98437.28;;;32.94;28.69
21359;BME280;13506;50.852;20.632;2023-08-24T11:25:52;98435.09;;;32.91;29.75
21359;BME280;13506;50.852;20.632;2023-08-24T11:28:23;98429.16;;;32.94;30.56
21359;BME280;13506;50.852;20.632;2023-08-24T11:30:53;98423.81;;;33.00;29.82
21359;BME280;13506;50.852;20.632;2023-08-24T11:33:30;98429.97;;;32.95;29.70
21359;BME280;13506;50.852;20.632;2023-08-24T11:35:59;98427.66;;;32.82;29.91
21359;BME280;13506;50.852;20.632;2023-08-24T11:38:39;98428.78;;;32.86;29.34
21359;BME280;13506;50.852;20.632;2023-08-24T11:41:12;98425.31;;;32.90;29.71
21359;BME280;13506;50.852;20.632;2023-08-24T11:43:41;98420.00;;;33.01;29.35
21359;BME280;13506;50.852;20.632;2023-08-24T11:46:09;98413.97;;;32.93;29.53
21359;BME280;13506;50.852;20.632;2023-08-24T11:48:38;98422.97;;;32.99;29.81
21359;BME280;13506;50.852;20.632;2023-08-24T11:51:09;98420.53;;;32.97;29.16
21359;BME280;13506;50.852;20.632;2023-08-24T11:53:41;98417.81;;;32.97;29.19
21359;BME280;13506;50.852;20.632;2023-08-24T11:56:11;98404.41;;;32.86;29.46
21359;BME280;13506;50.852;20.632;2023-08-24T11:58:39;98400.06;;;32.85;29.17
21359;BME280;13506;50.852;20.632;2023-08-24T12:01:08;98401.19;;;32.89;29.12
21359;BME280;13506;50.852;20.632;2023-08-24T12:03:37;98402.00;;;32.89;30.08
21359;BME280;13506;50.852;20.632;2023-08-24T12:06:11;98395.47;;;32.85;29.61
21359;BME280;13506;50.852;20.632;2023-08-24T12:08:42;98394.44;;;32.64;30.79
21359;BME280;13506;50.852;20.632;2023-08-24T12:11:12;98397.31;;;32.35;30.32
21359;BME280;13506;50.852;20.632;2023-08-24T12:13:44;98378.19;;;32.20;30.07
21359;BME280;13506;50.852;20.632;2023-08-24T12:16:14;98390.84;;;31.97;29.12
21359;BME280;13506;50.852;20.632;2023-08-24T12:18:51;98386.97;;;31.71;29.37
21359;BME280;13506;50.852;20.632;2023-08-24T12:21:20;98382.53;;;31.31;30.94
21359;BME280;13506;50.852;20.632;2023-08-24T12:24:01;98383.97;;;31.05;32.05
21359;BME280;13506;50.852;20.632;2023-08-24T12:26:31;98378.41;;;31.12;32.64
21359;BME280;13506;50.852;20.632;2023-08-24T12:29:04;98374.56;;;31.08;31.25
21359;BME280;13506;50.852;20.632;2023-08-24T12:31:33;98372.75;;;30.96;31.45
21359;BME280;13506;50.852;20.632;2023-08-24T12:34:02;98372.31;;;30.88;32.23
21359;BME280;13506;50.852;20.632;2023-08-24T12:36:32;98372.81;;;31.02;31.75
21359;BME280;13506;50.852;20.632;2023-08-24T12:39:03;98379.44;;;31.23;30.55
21359;BME280;13506;50.852;20.632;2023-08-24T12:41:32;98379.78;;;30.97;31.61
21359;BME280;13506;50.852;20.632;2023-08-24T12:44:00;98375.59;;;30.90;31.50
21359;BME280;13506;50.852;20.632;2023-08-24T12:46:32;98374.34;;;30.81;32.85
21359;BME280;13506;50.852;20.632;2023-08-24T12:49:01;98370.41;;;30.60;32.72
21359;BME280;13506;50.852;20.632;2023-08-24T12:51:29;98373.56;;;30.28;32.35
21359;BME280;13506;50.852;20.632;2023-08-24T12:53:57;98372.69;;;30.10;33.14
21359;BME280;13506;50.852;20.632;2023-08-24T12:56:27;98360.72;;;29.83;33.26
21359;BME280;13506;50.852;20.632;2023-08-24T12:58:55;98363.88;;;29.56;33.50
21359;BME280;13506;50.852;20.632;2023-08-24T13:01:23;98358.00;;;29.24;33.37
21359;BME280;13506;50.852;20.632;2023-08-24T13:03:51;98356.09;;;29.24;33.67